createdAt,value
2022-10-08T00:01:14.948Z,15.90
2022-10-08T00:03:44.434Z,16.30
2022-10-08T00:06:13.553Z,17.50
2022-10-08T00:08:43.504Z,16.47
2022-10-08T00:11:11.751Z,15.83
2022-10-08T00:13:41.652Z,17.67
2022-10-08T00:16:09.989Z,17.47
2022-10-08T00:18:37.645Z,17.23
2022-10-08T00:21:05.976Z,17.40
2022-10-08T00:23:34.020Z,16.57
2022-10-08T00:26:07.084Z,17.27
2022-10-08T00:28:35.306Z,17.23
2022-10-08T00:31:06.266Z,17.87
2022-10-08T00:33:34.266Z,17.50
2022-10-08T00:36:01.883Z,17.23
2022-10-08T00:38:29.421Z,17.23
2022-10-08T00:40:56.984Z,17.50
2022-10-08T00:43:38.400Z,17.77
2022-10-08T00:46:06.509Z,17.37
2022-10-08T00:48:34.773Z,17.07
2022-10-08T00:51:03.049Z,16.77
2022-10-08T00:53:31.205Z,17.00
2022-10-08T00:55:58.792Z,16.37
2022-10-08T00:58:27.103Z,16.13
2022-10-08T01:00:57.030Z,16.23
2022-10-08T01:03:24.912Z,15.17
2022-10-08T01:06:03.013Z,16.13
2022-10-08T01:08:34.577Z,16.23
2022-10-08T01:11:05.196Z,15.37
2022-10-08T01:13:38.195Z,16.30
2022-10-08T01:16:11.546Z,16.23
2022-10-08T01:18:44.908Z,16.30
2022-10-08T01:21:13.759Z,16.37
2022-10-08T01:23:48.717Z,16.73
2022-10-08T01:26:24.038Z,16.50
2022-10-08T01:28:56.117Z,16.17
2022-10-08T01:31:25.572Z,15.90
2022-10-08T01:33:54.843Z,15.87
2022-10-08T01:36:24.237Z,15.73
2022-10-08T01:38:53.024Z,16.77
2022-10-08T01:41:22.527Z,16.63
2022-10-08T01:43:52.145Z,16.63
2022-10-08T01:46:22.504Z,16.13
2022-10-08T01:48:51.368Z,15.63
2022-10-08T01:51:20.484Z,16.30
2022-10-08T01:53:50.825Z,15.70
2022-10-08T01:56:20.836Z,15.40
2022-10-08T01:58:50.699Z,15.50
2022-10-08T02:01:22.087Z,14.50
2022-10-08T02:04:03.732Z,14.97
2022-10-08T02:06:32.653Z,14.93
2022-10-08T02:09:00.219Z,14.40
2022-10-08T02:11:28.770Z,14.60
2022-10-08T02:13:57.468Z,13.67
2022-10-08T02:16:28.857Z,14.43
2022-10-08T02:18:58.698Z,15.07
2022-10-08T02:21:27.916Z,15.07
2022-10-08T02:23:57.706Z,15.03
2022-10-08T02:26:28.120Z,14.80
2022-10-08T02:28:58.547Z,14.50
2022-10-08T02:31:31.220Z,13.90
2022-10-08T02:34:00.115Z,13.87
2022-10-08T02:36:32.159Z,14.00
2022-10-08T02:39:03.864Z,13.67
2022-10-08T02:41:32.127Z,13.57
2022-10-08T02:44:00.835Z,14.03
2022-10-08T02:46:32.545Z,13.77
2022-10-08T02:49:01.433Z,14.10
2022-10-08T02:51:30.484Z,15.20
2022-10-08T02:53:58.973Z,17.70
2022-10-08T02:56:29.084Z,15.17
2022-10-08T02:58:57.070Z,16.03
2022-10-08T03:01:28.623Z,16.60
2022-10-08T03:04:01.487Z,15.50
2022-10-08T03:06:30.010Z,15.93
2022-10-08T03:08:59.456Z,16.43
2022-10-08T03:11:27.694Z,17.60
2022-10-08T03:13:58.366Z,16.67
2022-10-08T03:16:27.713Z,16.13
2022-10-08T03:18:58.963Z,16.87
2022-10-08T03:21:29.105Z,16.60
2022-10-08T03:23:56.653Z,16.57
2022-10-08T03:26:24.206Z,16.20
2022-10-08T03:28:53.073Z,16.03
2022-10-08T03:31:20.640Z,16.67
2022-10-08T03:33:50.551Z,15.27
2022-10-08T03:36:18.145Z,15.63
2022-10-08T03:38:47.121Z,14.90
2022-10-08T03:41:14.733Z,15.17
2022-10-08T03:43:42.374Z,14.60
2022-10-08T03:46:11.965Z,14.83
2022-10-08T03:48:39.935Z,14.00
2022-10-08T03:51:09.235Z,14.43
2022-10-08T03:53:38.040Z,13.90
2022-10-08T03:56:07.985Z,15.37
2022-10-08T03:58:36.024Z,15.13
2022-10-08T04:01:04.798Z,14.43
2022-10-08T04:03:32.816Z,14.30
2022-10-08T04:06:00.690Z,14.80
2022-10-08T04:08:28.364Z,15.03
2022-10-08T04:10:55.996Z,15.70
2022-10-08T04:13:24.945Z,15.43
2022-10-08T04:15:52.503Z,15.43
2022-10-08T04:18:20.076Z,15.87
2022-10-08T04:20:47.585Z,15.50
2022-10-08T04:23:15.115Z,16.30
2022-10-08T04:25:49.477Z,15.60
2022-10-08T04:28:17.064Z,15.97
2022-10-08T04:30:55.042Z,15.77
2022-10-08T04:33:22.611Z,15.20
2022-10-08T04:35:50.200Z,16.27
2022-10-08T04:38:17.754Z,16.10
2022-10-08T04:40:45.298Z,14.67
2022-10-08T04:43:12.934Z,14.70
2022-10-08T04:45:44.137Z,14.43
2022-10-08T04:48:13.312Z,13.17
2022-10-08T04:50:40.879Z,12.50
2022-10-08T04:53:08.404Z,12.07
2022-10-08T04:55:35.996Z,12.87
2022-10-08T04:58:03.569Z,12.67
2022-10-08T05:00:31.141Z,13.20
2022-10-08T05:02:58.737Z,13.60
2022-10-08T05:05:27.694Z,13.43
2022-10-08T05:07:56.722Z,14.60
2022-10-08T05:10:24.742Z,15.43
2022-10-08T05:12:52.273Z,14.70
2022-10-08T05:15:19.825Z,14.27
2022-10-08T05:17:47.344Z,14.67
2022-10-08T05:20:14.895Z,14.30
2022-10-08T05:22:43.950Z,14.23
2022-10-08T05:25:11.645Z,14.50
2022-10-08T05:27:39.176Z,16.03
2022-10-08T05:30:07.502Z,16.13
2022-10-08T05:32:35.065Z,13.87
2022-10-08T05:35:02.705Z,14.27
2022-10-08T05:37:30.229Z,13.70
2022-10-08T05:39:59.124Z,13.30
2022-10-08T05:42:26.717Z,13.57
2022-10-08T05:44:54.281Z,13.30
2022-10-08T05:47:21.821Z,14.93
2022-10-08T05:49:49.360Z,18.50
2022-10-08T05:52:16.956Z,20.13
2022-10-08T05:54:44.516Z,20.47
2022-10-08T05:57:13.512Z,18.90
2022-10-08T05:59:41.065Z,18.67
2022-10-08T06:02:08.668Z,19.43
2022-10-08T06:04:36.340Z,19.33
2022-10-08T06:07:03.944Z,17.87
2022-10-08T06:09:31.493Z,15.77
2022-10-08T06:11:59.849Z,16.60
2022-10-08T06:14:28.748Z,16.37
2022-10-08T06:16:56.303Z,15.90
2022-10-08T06:19:23.867Z,16.57
2022-10-08T06:21:51.584Z,15.33
2022-10-08T06:24:19.181Z,15.93
2022-10-08T06:26:46.769Z,15.50
2022-10-08T06:29:15.737Z,16.37
2022-10-08T06:31:45.041Z,17.87
2022-10-08T06:34:12.732Z,19.83
2022-10-08T06:36:40.402Z,19.47
2022-10-08T06:39:08.705Z,20.50
2022-10-08T06:41:36.250Z,19.23
2022-10-08T06:44:04.093Z,18.67
2022-10-08T06:46:32.658Z,18.23
2022-10-08T06:49:02.519Z,17.77
2022-10-08T06:51:30.398Z,17.77
2022-10-08T06:54:04.358Z,18.13
2022-10-08T06:56:35.810Z,17.83
2022-10-08T06:59:03.360Z,17.03
2022-10-08T07:01:33.600Z,15.77
2022-10-08T07:04:03.796Z,17.50
2022-10-08T07:06:31.431Z,17.00
2022-10-08T07:09:00.127Z,17.07
2022-10-08T07:11:28.388Z,18.40
2022-10-08T07:13:56.282Z,18.13
2022-10-08T07:16:24.850Z,18.50
2022-10-08T07:18:53.599Z,19.23
2022-10-08T07:21:22.935Z,16.33
2022-10-08T07:23:50.587Z,16.63
2022-10-08T07:26:18.930Z,15.10
2022-10-08T07:28:49.931Z,15.37
2022-10-08T07:31:19.069Z,15.87
2022-10-08T07:33:46.708Z,15.37
2022-10-08T07:36:14.941Z,14.80
2022-10-08T07:38:43.852Z,15.20
2022-10-08T07:41:12.524Z,15.20
2022-10-08T07:43:41.351Z,15.63
2022-10-08T07:46:09.592Z,17.00
2022-10-08T07:48:37.194Z,17.70
2022-10-08T07:51:11.049Z,21.13
2022-10-08T07:53:38.879Z,22.23
2022-10-08T07:56:08.537Z,22.10
2022-10-08T07:58:36.201Z,21.97
2022-10-08T08:01:05.161Z,22.60
2022-10-08T08:03:32.764Z,22.47
2022-10-08T08:06:01.842Z,21.80
2022-10-08T08:08:29.481Z,22.00
2022-10-08T08:10:57.518Z,19.10
2022-10-08T08:13:26.737Z,20.23
2022-10-08T08:15:58.036Z,20.90
2022-10-08T08:18:25.734Z,20.63
2022-10-08T08:20:58.363Z,20.27
2022-10-08T08:23:29.157Z,21.30
2022-10-08T08:25:56.732Z,20.87
2022-10-08T08:28:24.841Z,20.53
2022-10-08T08:30:53.808Z,20.83
2022-10-08T08:33:21.345Z,20.20
2022-10-08T08:35:52.448Z,19.40
2022-10-08T08:38:20.037Z,20.03
2022-10-08T08:40:48.089Z,19.37
2022-10-08T08:43:15.653Z,18.43
2022-10-08T08:45:47.767Z,17.97
2022-10-08T08:48:20.267Z,20.90
2022-10-08T08:50:49.952Z,19.83
2022-10-08T08:53:18.437Z,20.03
2022-10-08T08:55:47.121Z,20.43
2022-10-08T08:58:20.862Z,19.90
2022-10-08T09:00:52.758Z,20.33
2022-10-08T09:03:23.869Z,19.80
2022-10-08T09:05:56.479Z,18.30
2022-10-08T09:08:26.982Z,17.93
2022-10-08T09:10:56.422Z,19.07
2022-10-08T09:13:25.776Z,19.23
2022-10-08T09:15:55.208Z,18.87
2022-10-08T09:18:24.390Z,18.80
2022-10-08T09:20:51.918Z,18.70
2022-10-08T09:23:20.686Z,18.70
2022-10-08T09:25:50.197Z,20.27
2022-10-08T09:28:32.619Z,21.30
2022-10-08T09:31:12.296Z,27.67
2022-10-08T09:33:41.608Z,19.50
2022-10-08T09:36:10.208Z,18.77
2022-10-08T09:38:38.269Z,19.60
2022-10-08T09:41:06.664Z,18.93
2022-10-08T09:43:34.589Z,19.57
2022-10-08T09:46:05.581Z,19.03
2022-10-08T09:48:33.222Z,20.60
2022-10-08T09:51:03.628Z,20.13
2022-10-08T09:53:34.957Z,20.47
2022-10-08T09:56:03.529Z,20.07
2022-10-08T09:58:32.025Z,19.57
2022-10-08T10:01:02.142Z,20.80
2022-10-08T10:03:30.057Z,20.33
2022-10-08T10:05:58.955Z,18.33
2022-10-08T10:08:59.953Z,17.77
2022-10-08T10:11:30.929Z,18.77
2022-10-08T10:13:58.760Z,18.07
2022-10-08T10:16:28.063Z,18.43
2022-10-08T10:18:57.721Z,17.10
2022-10-08T10:21:28.844Z,17.30
2022-10-08T10:24:01.699Z,15.77
2022-10-08T10:26:32.260Z,17.03
2022-10-08T10:29:01.952Z,16.23
2022-10-08T10:31:32.792Z,14.37
2022-10-08T10:34:01.468Z,13.47
2022-10-08T10:36:32.252Z,13.33
2022-10-08T10:39:05.361Z,14.30
2022-10-08T10:41:37.272Z,14.10
2022-10-08T10:44:06.787Z,13.53
2022-10-08T10:46:35.882Z,12.10
2022-10-08T10:49:03.700Z,13.00
2022-10-08T10:51:46.097Z,13.03
2022-10-08T10:54:22.116Z,12.50
2022-10-08T10:56:53.012Z,12.03
2022-10-08T10:59:30.949Z,11.60
2022-10-08T11:02:01.629Z,10.10
2022-10-08T11:04:38.093Z,9.43
2022-10-08T11:07:07.052Z,7.40
2022-10-08T11:09:39.309Z,8.20
2022-10-08T11:12:14.730Z,7.30
2022-10-08T11:14:50.335Z,7.23
2022-10-08T11:17:26.030Z,7.33
2022-10-08T11:19:59.973Z,7.20
2022-10-08T11:22:30.748Z,6.47
2022-10-08T11:25:05.771Z,6.07
2022-10-08T11:27:41.500Z,6.30
2022-10-08T11:30:14.175Z,6.43
2022-10-08T11:32:42.489Z,5.97
2022-10-08T11:35:21.486Z,6.33
2022-10-08T11:37:51.432Z,6.40
2022-10-08T11:40:22.641Z,5.97
2022-10-08T11:42:54.478Z,7.10
2022-10-08T11:45:31.266Z,6.13
2022-10-08T11:47:59.697Z,5.87
2022-10-08T11:50:31.375Z,5.53
2022-10-08T11:53:01.709Z,5.70
2022-10-08T11:55:31.577Z,5.50
2022-10-08T11:58:09.550Z,5.23
2022-10-08T12:00:38.907Z,5.63
2022-10-08T12:03:07.447Z,5.17
2022-10-08T12:05:37.293Z,5.00
2022-10-08T12:08:06.298Z,5.10
2022-10-08T12:10:34.456Z,5.13
2022-10-08T12:13:05.466Z,4.83
2022-10-08T12:15:50.702Z,4.93
2022-10-08T12:18:30.207Z,5.00
2022-10-08T12:21:12.641Z,5.13
2022-10-08T12:23:40.179Z,7.23
2022-10-08T12:26:11.769Z,5.90
2022-10-08T12:28:45.834Z,5.97
2022-10-08T12:31:17.876Z,5.30
2022-10-08T12:33:55.021Z,6.07
2022-10-08T12:36:29.583Z,4.77
2022-10-08T12:38:59.359Z,5.40
2022-10-08T12:41:29.997Z,5.50
2022-10-08T12:44:02.087Z,5.53
2022-10-08T12:46:34.755Z,5.83
2022-10-08T12:49:05.044Z,5.10
2022-10-08T12:51:38.141Z,5.07
2022-10-08T12:54:05.829Z,5.13
2022-10-08T12:56:33.512Z,5.30
2022-10-08T12:59:04.223Z,5.00
2022-10-08T13:01:32.494Z,5.40
2022-10-08T13:04:10.533Z,5.23
2022-10-08T13:06:38.097Z,4.30
2022-10-08T13:09:29.691Z,4.60
2022-10-08T13:12:02.814Z,4.50
2022-10-08T13:14:33.547Z,4.30
2022-10-08T13:17:01.494Z,4.10
2022-10-08T13:19:30.785Z,3.90
2022-10-08T13:22:00.177Z,3.97
2022-10-08T13:24:30.347Z,4.80
2022-10-08T13:26:57.911Z,4.10
2022-10-08T13:29:29.907Z,4.87
2022-10-08T13:32:00.137Z,4.40
2022-10-08T13:34:29.839Z,4.93
2022-10-08T13:36:58.336Z,4.40
2022-10-08T13:39:27.280Z,4.50
2022-10-08T13:41:56.204Z,4.70
2022-10-08T13:44:23.942Z,5.23
2022-10-08T13:46:51.627Z,4.80
2022-10-08T13:49:24.009Z,3.80
2022-10-08T13:51:51.905Z,4.10
2022-10-08T13:54:22.460Z,4.70
2022-10-08T13:56:50.584Z,4.53
2022-10-08T13:59:18.173Z,5.03
2022-10-08T14:01:45.797Z,4.87
2022-10-08T14:04:13.680Z,5.60
2022-10-08T14:06:43.357Z,4.90
2022-10-08T14:09:14.275Z,5.27
2022-10-08T14:11:43.128Z,5.10
2022-10-08T14:14:12.044Z,5.40
2022-10-08T14:16:39.666Z,5.03
2022-10-08T14:19:11.907Z,5.40
2022-10-08T14:21:40.772Z,5.33
2022-10-08T14:24:09.694Z,4.20
2022-10-08T14:26:37.325Z,4.30
2022-10-08T14:29:04.897Z,4.30
2022-10-08T14:31:32.511Z,3.93
2022-10-08T14:34:00.116Z,4.00
2022-10-08T14:36:31.301Z,3.93
2022-10-08T14:38:58.840Z,4.00
2022-10-08T14:41:27.913Z,3.60
2022-10-08T14:43:55.445Z,3.50
2022-10-08T14:46:23.005Z,4.37
2022-10-08T14:48:50.557Z,4.03
2022-10-08T14:51:18.125Z,4.40
2022-10-08T14:53:45.753Z,3.97
2022-10-08T14:56:13.382Z,3.70
2022-10-08T14:58:42.985Z,4.23
2022-10-08T15:01:10.657Z,4.00
2022-10-08T15:03:38.228Z,3.70
2022-10-08T15:06:05.888Z,3.63
2022-10-08T15:08:33.416Z,3.37
2022-10-08T15:11:02.246Z,3.43
2022-10-08T15:13:30.120Z,3.23
2022-10-08T15:15:59.162Z,3.50
2022-10-08T15:18:26.781Z,3.60
2022-10-08T15:20:54.708Z,3.50
2022-10-08T15:23:22.757Z,3.40
2022-10-08T15:25:56.006Z,3.63
2022-10-08T15:28:23.639Z,3.80
2022-10-08T15:30:51.241Z,3.30
2022-10-08T15:33:20.182Z,3.63
2022-10-08T15:35:47.713Z,3.90
2022-10-08T15:38:15.268Z,3.60
2022-10-08T15:40:42.844Z,3.57
2022-10-08T15:43:10.387Z,4.10
2022-10-08T15:45:42.294Z,3.20
2022-10-08T15:48:11.545Z,4.70
2022-10-08T15:50:40.510Z,4.90
2022-10-08T15:53:08.365Z,4.57
2022-10-08T15:55:35.900Z,4.70
2022-10-08T15:58:03.460Z,4.00
2022-10-08T16:00:34.619Z,4.50
2022-10-08T16:03:04.841Z,4.27
2022-10-08T16:05:32.395Z,4.60
2022-10-08T16:08:01.296Z,4.53
2022-10-08T16:10:28.832Z,5.27
2022-10-08T16:12:56.373Z,5.20
2022-10-08T16:15:23.945Z,4.93
2022-10-08T16:17:51.785Z,5.80
2022-10-08T16:20:19.319Z,4.57
2022-10-08T16:22:47.254Z,4.20
2022-10-08T16:25:16.341Z,4.10
2022-10-08T16:27:43.867Z,4.17
2022-10-08T16:30:11.832Z,4.10
2022-10-08T16:32:39.404Z,3.83
2022-10-08T16:35:07.276Z,4.30
2022-10-08T16:37:34.811Z,4.30
2022-10-08T16:40:03.833Z,4.00
2022-10-08T16:42:32.730Z,4.43
2022-10-08T16:45:00.323Z,4.53
2022-10-08T16:47:27.905Z,4.13
2022-10-08T16:49:55.520Z,3.87
2022-10-08T16:52:23.033Z,4.30
2022-10-08T16:54:54.513Z,3.20
2022-10-08T16:57:22.372Z,3.67
2022-10-08T16:59:51.257Z,3.20
2022-10-08T17:02:22.509Z,3.17
2022-10-08T17:04:52.582Z,3.50
2022-10-08T17:07:20.114Z,3.80
2022-10-08T17:09:47.657Z,3.53
2022-10-08T17:12:19.674Z,3.93
2022-10-08T17:14:49.180Z,5.53
2022-10-08T17:17:18.104Z,4.63
2022-10-08T17:19:45.679Z,3.63
2022-10-08T17:22:16.217Z,3.70
2022-10-08T17:24:43.793Z,3.80
2022-10-08T17:27:13.272Z,3.90
2022-10-08T17:29:40.805Z,3.70
2022-10-08T17:32:08.359Z,3.80
2022-10-08T17:34:37.298Z,3.63
2022-10-08T17:37:04.871Z,3.80
2022-10-08T17:39:32.576Z,4.37
2022-10-08T17:42:02.643Z,4.20
2022-10-08T17:44:33.808Z,4.70
2022-10-08T17:47:02.401Z,3.70
2022-10-08T17:49:29.946Z,4.30
2022-10-08T17:51:58.846Z,4.50
2022-10-08T17:54:26.473Z,4.13
2022-10-08T17:56:54.088Z,4.30
2022-10-08T17:59:22.716Z,4.33
2022-10-08T18:01:50.475Z,4.80
2022-10-08T18:04:19.018Z,4.80
2022-10-08T18:06:47.447Z,4.70
2022-10-08T18:09:18.220Z,4.53
2022-10-08T18:11:46.780Z,4.57
2022-10-08T18:14:14.375Z,4.67
2022-10-08T18:16:46.975Z,5.10
2022-10-08T18:19:15.590Z,4.60
2022-10-08T18:21:43.129Z,4.70
2022-10-08T18:24:10.925Z,4.70
2022-10-08T18:26:39.830Z,4.47
2022-10-08T18:29:09.402Z,4.50
2022-10-08T18:31:37.396Z,4.30
2022-10-08T18:34:05.756Z,4.57
2022-10-08T18:36:34.008Z,4.80
2022-10-08T18:39:02.241Z,4.73
2022-10-08T18:41:30.648Z,4.27
2022-10-08T18:44:00.664Z,4.73
2022-10-08T18:46:28.794Z,4.50
2022-10-08T18:48:56.776Z,5.40
2022-10-08T18:51:25.178Z,4.40
2022-10-08T18:53:53.490Z,4.53
2022-10-08T18:56:22.378Z,4.70
2022-10-08T18:58:52.988Z,4.80
2022-10-08T19:01:22.928Z,5.30
2022-10-08T19:03:51.267Z,4.77
2022-10-08T19:06:19.407Z,5.30
2022-10-08T19:08:48.586Z,5.37
2022-10-08T19:11:17.465Z,5.20
2022-10-08T19:13:45.269Z,4.70
2022-10-08T19:16:15.045Z,5.20
2022-10-08T19:18:45.237Z,5.83
2022-10-08T19:21:14.069Z,5.43
2022-10-08T19:23:41.680Z,4.97
2022-10-08T19:26:09.389Z,5.27
2022-10-08T19:28:37.933Z,5.30
2022-10-08T19:31:12.452Z,6.23
2022-10-08T19:33:40.674Z,6.80
2022-10-08T19:36:09.973Z,5.93
2022-10-08T19:38:37.516Z,5.87
2022-10-08T19:41:07.505Z,5.93
2022-10-08T19:43:35.083Z,6.07
2022-10-08T19:46:03.849Z,6.80
2022-10-08T19:48:31.682Z,4.90
2022-10-08T19:51:03.993Z,5.00
2022-10-08T19:53:32.950Z,5.10
2022-10-08T19:56:00.538Z,5.23
2022-10-08T19:58:28.329Z,5.17
2022-10-08T20:00:59.431Z,5.50
2022-10-08T20:03:26.979Z,5.40
2022-10-08T20:05:54.884Z,5.47
2022-10-08T20:08:22.509Z,6.07
2022-10-08T20:10:51.429Z,5.70
2022-10-08T20:13:18.973Z,6.43
2022-10-08T20:15:50.354Z,5.90
2022-10-08T20:18:18.950Z,6.10
2022-10-08T20:20:46.656Z,6.00
2022-10-08T20:23:14.292Z,6.13
2022-10-08T20:25:42.431Z,6.00
2022-10-08T20:28:11.358Z,6.03
2022-10-08T20:30:39.023Z,6.03
2022-10-08T20:33:06.599Z,6.27
2022-10-08T20:35:36.486Z,5.83
2022-10-08T20:38:04.200Z,5.70
2022-10-08T20:40:31.770Z,5.73
2022-10-08T20:42:59.315Z,5.90
2022-10-08T20:45:28.193Z,5.77
2022-10-08T20:47:55.783Z,5.87
2022-10-08T20:50:23.328Z,5.57
2022-10-08T20:52:51.106Z,5.47
2022-10-08T20:55:19.544Z,5.90
2022-10-08T20:57:47.105Z,5.57
2022-10-08T21:00:14.969Z,6.33
2022-10-08T21:02:43.905Z,6.07
2022-10-08T21:05:11.427Z,6.00
2022-10-08T21:07:38.989Z,5.60
2022-10-08T21:10:07.306Z,5.90
2022-10-08T21:12:34.873Z,6.00
2022-10-08T21:15:02.410Z,5.90
2022-10-08T21:17:29.942Z,5.80
2022-10-08T21:19:58.836Z,5.93
2022-10-08T21:22:26.373Z,5.57
2022-10-08T21:24:53.942Z,5.67
2022-10-08T21:27:21.460Z,5.40
2022-10-08T21:29:49.006Z,5.30
2022-10-08T21:32:16.759Z,5.63
2022-10-08T21:34:44.290Z,5.50
2022-10-08T21:37:14.020Z,5.10
2022-10-08T21:39:41.672Z,5.07
2022-10-08T21:42:09.213Z,5.47
2022-10-08T21:44:37.253Z,5.93
2022-10-08T21:47:04.899Z,5.47
2022-10-08T21:49:32.585Z,5.07
2022-10-08T21:52:00.321Z,5.17
2022-10-08T21:54:29.649Z,5.17
2022-10-08T21:56:57.178Z,5.70
2022-10-08T21:59:26.476Z,5.77
2022-10-08T22:01:54.130Z,5.23
2022-10-08T22:04:22.296Z,5.07
2022-10-08T22:06:50.538Z,5.50
2022-10-08T22:09:19.130Z,4.77
2022-10-08T22:11:48.244Z,5.10
2022-10-08T22:14:15.852Z,4.67
2022-10-08T22:16:43.534Z,4.80
2022-10-08T22:19:11.228Z,4.90
2022-10-08T22:21:38.870Z,4.30
2022-10-08T22:24:06.705Z,4.20
2022-10-08T22:26:35.994Z,3.43
2022-10-08T22:29:05.568Z,3.57
2022-10-08T22:31:33.647Z,3.20
2022-10-08T22:34:02.189Z,3.30
2022-10-08T22:36:30.955Z,2.70
2022-10-08T22:38:59.053Z,2.60
2022-10-08T22:41:27.458Z,3.10
2022-10-08T22:43:55.072Z,2.70
2022-10-08T22:46:24.718Z,3.10
2022-10-08T22:48:52.268Z,2.60
2022-10-08T22:51:20.649Z,2.70
2022-10-08T22:53:48.208Z,2.67
2022-10-08T22:56:17.141Z,2.77
2022-10-08T22:58:45.547Z,2.33
2022-10-08T23:01:13.742Z,2.40
2022-10-08T23:03:42.910Z,3.30
2022-10-08T23:06:14.232Z,2.83
2022-10-08T23:08:41.976Z,2.20
2022-10-08T23:11:09.645Z,3.27
2022-10-08T23:13:37.208Z,2.70
2022-10-08T23:16:06.017Z,2.70
2022-10-08T23:18:34.273Z,3.00
2022-10-08T23:21:03.794Z,2.60
2022-10-08T23:23:31.777Z,2.40
2022-10-08T23:26:00.172Z,2.67
2022-10-08T23:28:31.490Z,2.73
2022-10-08T23:31:04.296Z,2.50
2022-10-08T23:33:31.894Z,2.73
2022-10-08T23:35:59.489Z,2.70
2022-10-08T23:38:28.385Z,2.30
2022-10-08T23:40:59.221Z,2.80
2022-10-08T23:43:26.798Z,2.40
2022-10-08T23:45:54.399Z,3.37
2022-10-08T23:48:22.065Z,3.70
2022-10-08T23:50:50.373Z,2.40
2022-10-08T23:53:18.209Z,2.47
2022-10-08T23:55:47.364Z,2.47
2022-10-08T23:58:15.341Z,2.43
